Time;durP1;ratioP1;P1;durP2;ratioP2;P2;SDS_P1;SDS_P2;PMS_P1;PMS_P2;Temp;Humidity;BMP_temperature;BMP_pressure;BME280_temperature;BME280_humidity;BME280_pressure;Samples;Min_cycle;Max_cycle;Signal;HPM_P1;HPM_P2
2023/09/11 00:06:10;;;;;;;7.90;6.93;;;;;;;21.36;100.00;101197.16;20983845;28;20044;-59
2023/09/11 00:16:12;;;;;;;8.43;7.45;;;;;;;21.34;100.00;101192.91;20986428;28;20064;-59
2023/09/11 00:26:13;;;;;;;9.10;7.05;;;;;;;21.32;100.00;101174.09;20983975;28;20094;-59
2023/09/11 00:36:16;;;;;;;7.90;7.10;;;;;;;21.30;100.00;101159.84;20984747;28;20045;-59
2023/09/11 00:46:18;;;;;;;8.27;7.40;;;;;;;21.28;100.00;101153.75;20985040;28;20163;-59
2023/09/11 00:56:20;;;;;;;8.18;6.68;;;;;;;21.27;100.00;101136.66;20964437;28;20502;-59
2023/09/11 01:06:22;;;;;;;7.95;7.20;;;;;;;21.25;100.00;101127.84;20980383;28;20048;-59
2023/09/11 01:16:30;;;;;;;9.60;7.15;;;;;;;21.24;100.00;101120.72;20988885;28;20068;-59
2023/09/11 01:26:51;;;;;;;8.95;7.70;;;;;;;21.23;100.00;101127.16;20974018;28;20405;-59
2023/09/11 01:36:53;;;;;;;9.05;7.18;;;;;;;21.23;100.00;101110.03;20972616;28;20055;-59
2023/09/11 01:46:56;;;;;;;8.85;6.55;;;;;;;21.13;100.00;101091.13;20971757;28;20366;-59
2023/09/11 01:56:58;;;;;;;8.65;7.70;;;;;;;21.19;100.00;101104.06;20956188;28;20052;-59
2023/09/11 02:06:59;;;;;;;8.27;6.82;;;;;;;21.19;100.00;101100.50;20954395;28;20052;-59
2023/09/11 02:17:02;;;;;;;9.95;7.47;;;;;;;21.17;100.00;101097.94;20988041;28;20467;-59
2023/09/11 02:27:04;;;;;;;8.65;7.82;;;;;;;21.17;100.00;101089.81;20984157;28;20070;-59
2023/09/11 02:37:07;;;;;;;11.88;8.35;;;;;;;21.16;100.00;101082.72;20967163;28;20044;-59
2023/09/11 02:47:08;;;;;;;9.68;7.28;;;;;;;21.15;100.00;101068.34;20982679;28;20456;-59
2023/09/11 02:57:10;;;;;;;7.85;6.80;;;;;;;21.13;100.00;101059.53;20985256;28;20078;-59
2023/09/11 03:07:14;;;;;;;10.38;8.23;;;;;;;21.12;100.00;101067.78;20958832;28;20041;-60
2023/09/11 03:17:16;;;;;;;14.77;7.47;;;;;;;21.09;100.00;101046.44;20977073;28;20501;-59
2023/09/11 03:27:18;;;;;;;8.38;7.18;;;;;;;21.08;100.00;101033.91;20984646;28;20041;-59
2023/09/11 03:37:22;;;;;;;8.50;7.28;;;;;;;21.04;100.00;101041.50;20975411;28;20162;-59
2023/09/11 03:47:24;;;;;;;9.32;7.30;;;;;;;21.01;100.00;101023.69;20965771;28;20052;-59
2023/09/11 03:57:27;;;;;;;9.40;6.90;;;;;;;21.00;100.00;101010.34;20999097;28;20072;-59
2023/09/11 04:07:29;;;;;;;8.93;7.90;;;;;;;20.98;100.00;101007.78;20980858;28;20080;-59
2023/09/11 04:17:31;;;;;;;7.78;6.97;;;;;;;20.92;100.00;100997.56;20960855;28;20037;-59
2023/09/11 04:27:33;;;;;;;9.13;7.60;;;;;;;20.93;100.00;100988.44;20972710;28;20041;-59
2023/09/11 04:37:36;;;;;;;7.45;6.68;;;;;;;20.88;100.00;100973.66;20977555;28;20037;-59
2023/09/11 04:47:37;;;;;;;9.70;7.05;;;;;;;20.91;100.00;100987.75;20971797;28;20048;-59
2023/09/11 04:57:40;;;;;;;8.43;7.28;;;;;;;20.91;100.00;100985.03;20975520;28;20128;-59
2023/09/11 05:07:42;;;;;;;16.42;6.95;;;;;;;20.89;100.00;100980.78;20973762;28;20504;-59
2023/09/11 05:17:43;;;;;;;22.80;13.27;;;;;;;20.85;100.00;100986.50;20985594;28;20045;-58
2023/09/11 05:27:45;;;;;;;19.33;12.63;;;;;;;20.69;100.00;100976.31;20962823;28;20439;-58
2023/09/11 05:37:47;;;;;;;15.85;11.93;;;;;;;20.62;100.00;100977.94;20980242;28;20047;-58
2023/09/11 05:47:49;;;;;;;15.43;11.77;;;;;;;20.60;100.00;100977.25;20982720;28;20565;-58
2023/09/11 05:57:51;;;;;;;18.05;12.57;;;;;;;20.57;100.00;100962.19;20945068;28;20046;-57
2023/09/11 06:07:52;;;;;;;16.13;11.80;;;;;;;20.57;100.00;100977.56;20968677;28;20097;-57
2023/09/11 06:17:54;;;;;;;12.88;9.07;;;;;;;20.64;100.00;100970.53;20978682;28;20080;-58
2023/09/11 06:27:57;;;;;;;11.27;8.02;;;;;;;20.78;100.00;100962.91;20974981;28;20573;-57
2023/09/11 06:37:58;;;;;;;10.48;8.75;;;;;;;20.90;100.00;100966.25;20976506;28;20080;-59
2023/09/11 06:48:00;;;;;;;12.98;9.07;;;;;;;21.02;100.00;100970.44;20960719;28;20084;-58
2023/09/11 06:58:02;;;;;;;11.70;7.82;;;;;;;21.14;100.00;100979.16;20963106;28;20059;-59
2023/09/11 07:08:04;;;;;;;8.18;6.63;;;;;;;21.25;100.00;100959.97;20951600;28;20056;-58
2023/09/11 07:18:05;;;;;;;9.45;7.65;;;;;;;21.37;100.00;100967.84;20984549;28;20148;-58
2023/09/11 07:28:07;;;;;;;11.75;7.68;;;;;;;21.49;100.00;100966.56;20980646;28;20049;-59
2023/09/11 07:38:09;;;;;;;10.35;7.18;;;;;;;21.61;100.00;100956.31;20975525;28;20045;-59
2023/09/11 07:48:10;;;;;;;10.10;7.22;;;;;;;21.73;100.00;100959.63;20979739;28;20044;-59
2023/09/11 07:58:12;;;;;;;9.20;7.60;;;;;;;21.81;100.00;100959.69;20976964;28;20084;-59
2023/09/11 08:08:14;;;;;;;9.10;7.53;;;;;;;21.87;100.00;100953.63;20972656;28;20119;-59
2023/09/11 08:18:16;;;;;;;9.05;6.57;;;;;;;21.94;100.00;100951.13;20974245;28;20049;-58
2023/09/11 08:28:17;;;;;;;8.65;6.20;;;;;;;21.99;100.00;100943.34;20974979;28;20052;-59
2023/09/11 08:38:19;;;;;;;6.85;6.03;;;;;;;22.07;100.00;100937.09;20973471;28;20558;-58
2023/09/11 08:48:21;;;;;;;7.15;5.90;;;;;;;22.17;100.00;100945.97;20990047;28;20057;-58
2023/09/11 08:58:24;;;;;;;8.30;6.15;;;;;;;22.24;100.00;100954.28;20976936;28;20119;-59
2023/09/11 09:08:26;;;;;;;8.23;5.72;;;;;;;22.33;100.00;100949.72;20986693;28;20139;-59
2023/09/11 09:18:28;;;;;;;7.68;5.60;;;;;;;22.38;100.00;100939.22;20967067;28;20520;-59
2023/09/11 09:28:32;;;;;;;9.18;6.13;;;;;;;22.44;100.00;100938.56;20983883;28;20387;-59
2023/09/11 09:38:37;;;;;;;6.35;5.43;;;;;;;22.47;100.00;100932.00;20972740;28;20040;-59
2023/09/11 09:48:39;;;;;;;8.18;5.63;;;;;;;22.49;100.00;100931.81;20977649;28;20056;-58
2023/09/11 09:58:44;;;;;;;7.32;6.13;;;;;;;22.48;100.00;100916.56;20981373;28;20136;-58
2023/09/11 10:08:47;;;;;;;6.32;5.53;;;;;;;22.53;100.00;100933.19;20980424;28;20512;-59
2023/09/11 10:18:49;;;;;;;7.18;5.93;;;;;;;22.54;100.00;100921.34;20977874;28;20067;-59
2023/09/11 10:28:52;;;;;;;8.05;6.28;;;;;;;22.53;100.00;100925.03;20981568;28;20048;-59
2023/09/11 10:38:56;;;;;;;6.90;5.43;;;;;;;22.54;100.00;100916.75;20945952;28;20471;-58
2023/09/11 10:48:59;;;;;;;8.15;5.80;;;;;;;22.55;100.00;100904.06;20952672;28;20045;-59
2023/09/11 10:59:02;;;;;;;6.60;5.90;;;;;;;22.55;100.00;100899.47;20971302;28;20044;-59
2023/09/11 11:09:22;;;;;;;6.88;6.05;;;;;;;22.56;100.00;100897.59;20977663;28;20061;-59
2023/09/11 11:19:50;;;;;;;7.63;6.10;;;;;;;22.55;100.00;100901.34;20968576;28;20091;-59
2023/09/11 11:29:55;;;;;;;8.43;6.38;;;;;;;22.54;100.00;100894.22;20973337;28;20070;-59
2023/09/11 11:39:59;;;;;;;8.95;5.70;;;;;;;22.48;100.00;100886.72;20961318;28;20044;-60
2023/09/11 11:50:09;;;;;;;7.20;5.90;;;;;;;22.51;100.00;100900.81;20961787;28;20454;-59
2023/09/11 12:00:11;;;;;;;6.93;6.18;;;;;;;22.49;100.00;100907.41;20952812;28;20107;-59
2023/09/11 12:10:13;;;;;;;7.75;6.72;;;;;;;22.48;100.00;100900.28;20986387;28;20070;-59
2023/09/11 12:20:17;;;;;;;9.15;6.70;;;;;;;22.48;100.00;100911.13;20976120;28;20049;-59
2023/09/11 12:30:18;;;;;;;8.37;6.67;;;;;;;22.49;100.00;100912.84;20983645;28;20059;-59
2023/09/11 12:40:20;;;;;;;7.07;6.38;;;;;;;22.48;100.00;100906.56;20979023;28;20077;-59
2023/09/11 12:50:22;;;;;;;7.32;6.20;;;;;;;22.47;100.00;100917.56;20987024;28;20045;-59
2023/09/11 13:00:28;;;;;;;7.57;6.63;;;;;;;22.45;100.00;100913.16;20972912;28;20048;-59
2023/09/11 13:10:31;;;;;;;8.48;6.35;;;;;;;22.43;100.00;100920.59;20981371;28;20072;-59
2023/09/11 13:20:32;;;;;;;6.82;5.95;;;;;;;22.43;100.00;100923.31;20975719;28;20978;-59
2023/09/11 13:30:34;;;;;;;8.07;6.18;;;;;;;22.43;100.00;100923.31;20969388;28;20052;-60
2023/09/11 13:40:36;;;;;;;6.38;5.63;;;;;;;22.41;100.00;100913.66;20966399;28;20055;-59
2023/09/11 13:50:37;;;;;;;6.40;5.72;;;;;;;22.44;100.00;100906.00;20975790;28;20512;-58
2023/09/11 14:00:39;;;;;;;6.35;5.68;;;;;;;22.47;100.00;100904.00;20951866;28;20040;-58
2023/09/11 14:10:41;;;;;;;5.57;4.93;;;;;;;22.41;100.00;100894.66;20971702;28;20393;-58
2023/09/11 14:20:43;;;;;;;8.38;5.30;;;;;;;22.47;100.00;100893.16;20981294;28;20424;-58
2023/09/11 14:30:45;;;;;;;5.03;4.53;;;;;;;22.40;100.00;100888.38;20981848;28;20056;-58
2023/09/11 14:40:47;;;;;;;6.03;5.43;;;;;;;22.40;100.00;100899.22;20977753;28;20048;-58
2023/09/11 14:50:48;;;;;;;6.43;5.35;;;;;;;22.38;100.00;100914.81;20956768;28;20102;-59
2023/09/11 15:00:52;;;;;;;7.32;5.22;;;;;;;22.37;100.00;100902.28;20961805;28;20084;-58
2023/09/11 15:11:00;;;;;;;5.32;4.28;;;;;;;22.38;100.00;100895.84;20956676;28;20725;-58
2023/09/11 15:21:03;;;;;;;4.88;4.15;;;;;;;22.39;100.00;100902.97;20960254;28;20723;-58
2023/09/11 15:31:04;;;;;;;7.30;4.85;;;;;;;22.43;100.00;100912.47;20974201;28;20056;-61
2023/09/11 15:41:06;;;;;;;4.28;3.88;;;;;;;22.48;100.00;100919.28;20968827;28;21610;-60
2023/09/11 15:51:08;;;;;;;5.78;5.20;;;;;;;22.51;100.00;100932.50;20956755;28;20045;-58
2023/09/11 16:01:10;;;;;;;18.90;12.07;;;;;;;22.63;100.00;100927.63;20952550;28;20045;-59
2023/09/11 16:11:12;;;;;;;21.88;11.70;;;;;;;22.76;100.00;100929.84;20955609;28;20040;-58
2023/09/11 16:21:13;;;;;;;20.77;9.32;;;;;;;22.87;100.00;100932.22;20959307;28;20562;-58
2023/09/11 16:31:33;;;;;;;13.15;7.57;;;;;;;22.88;100.00;100923.91;20949202;28;20045;-58
2023/09/11 16:41:35;;;;;;;13.43;7.72;;;;;;;22.89;100.00;100925.63;20966022;28;20040;-58
2023/09/11 16:51:37;;;;;;;12.93;7.43;;;;;;;22.84;100.00;100946.13;20955446;28;20051;-57
2023/09/11 17:01:40;;;;;;;9.90;6.60;;;;;;;22.71;100.00;100954.75;20977726;28;20074;-57
2023/09/11 17:11:41;;;;;;;9.18;5.97;;;;;;;22.59;100.00;100962.38;20978185;28;20051;-59
2023/09/11 17:21:43;;;;;;;9.77;6.03;;;;;;;22.44;100.00;100960.25;20971286;28;20562;-59
2023/09/11 17:31:45;;;;;;;8.23;5.85;;;;;;;22.30;100.00;100959.03;20970699;28;20061;-58
2023/09/11 17:41:47;;;;;;;11.45;6.90;;;;;;;22.25;100.00;100966.81;20973854;28;20120;-58
2023/09/11 17:51:50;;;;;;;9.32;7.90;;;;;;;22.25;100.00;100971.41;20990022;28;20045;-58
2023/09/11 18:01:52;;;;;;;9.60;7.63;;;;;;;22.23;100.00;100962.59;20989842;28;20063;-58
2023/09/11 18:11:53;;;;;;;9.15;7.63;;;;;;;22.20;100.00;100954.78;20989232;28;20056;-59
2023/09/11 18:21:55;;;;;;;9.15;8.25;;;;;;;22.16;100.00;100952.41;20988171;28;20053;-58
2023/09/11 18:31:57;;;;;;;10.32;9.18;;;;;;;22.14;100.00;100956.28;20987041;28;20500;-58
2023/09/11 18:41:59;;;;;;;10.75;8.45;;;;;;;22.11;100.00;100956.59;20984516;28;20094;-58
2023/09/11 18:52:02;;;;;;;10.27;8.33;;;;;;;22.07;100.00;100942.50;20984440;28;20475;-58
2023/09/11 19:02:05;;;;;;;9.65;8.65;;;;;;;22.00;100.00;100909.81;20967075;28;20484;-58
2023/09/11 19:12:07;;;;;;;12.55;9.50;;;;;;;22.01;100.00;100967.56;20984980;28;20045;-58
2023/09/11 19:22:11;;;;;;;11.27;9.15;;;;;;;21.98;100.00;100976.88;20967800;28;20487;-58
2023/09/11 19:32:12;;;;;;;12.50;10.40;;;;;;;21.96;100.00;100995.16;20984587;28;20052;-58
2023/09/11 19:42:18;;;;;;;12.55;11.02;;;;;;;21.94;100.00;100994.47;20983116;28;20052;-58
2023/09/11 19:52:19;;;;;;;13.32;11.20;;;;;;;21.94;100.00;101001.75;20984336;28;20037;-58
2023/09/11 20:02:21;;;;;;;15.38;11.82;;;;;;;21.93;100.00;101011.75;20982325;28;20045;-58
2023/09/11 20:12:26;;;;;;;13.60;11.90;;;;;;;21.90;100.00;101006.66;20981778;28;20043;-58
2023/09/11 20:22:28;;;;;;;13.45;10.70;;;;;;;21.90;100.00;101016.63;20996326;28;20099;-58
2023/09/11 20:32:30;;;;;;;12.05;10.43;;;;;;;21.88;100.00;101022.22;20996795;28;20040;-58
2023/09/11 20:42:32;;;;;;;12.55;10.85;;;;;;;21.87;100.00;101028.63;20995961;28;20173;-58
2023/09/11 20:52:33;;;;;;;12.60;11.07;;;;;;;21.80;100.00;101012.19;20995336;28;20135;-58
2023/09/11 21:02:35;;;;;;;12.02;10.82;;;;;;;21.83;100.00;101041.66;20995869;28;20050;-58
2023/09/11 21:12:54;;;;;;;11.88;10.48;;;;;;;21.83;100.00;101043.50;20992673;28;20036;-58
2023/09/11 21:22:56;;;;;;;13.65;11.60;;;;;;;21.80;100.00;101054.66;20991759;28;20094;-58
2023/09/11 21:32:58;;;;;;;11.93;10.70;;;;;;;21.79;100.00;101069.22;20992459;28;20072;-58
2023/09/11 21:43:00;;;;;;;14.23;12.75;;;;;;;21.76;100.00;101029.78;20991562;28;20041;-58
2023/09/11 21:53:02;;;;;;;12.35;11.00;;;;;;;21.72;100.00;100960.66;20990331;28;20135;-58
2023/09/11 22:03:03;;;;;;;12.60;11.40;;;;;;;21.73;100.00;101001.13;20990132;28;20592;-58
2023/09/11 22:13:05;;;;;;;12.68;11.40;;;;;;;21.73;100.00;101011.13;20987765;28;20049;-58
2023/09/11 22:23:07;;;;;;;11.02;9.50;;;;;;;21.66;100.00;101000.06;20988497;28;20048;-58
2023/09/11 22:33:08;;;;;;;10.80;9.70;;;;;;;21.71;100.00;101040.25;20987754;28;20120;-58
2023/09/11 22:43:10;;;;;;;10.82;9.73;;;;;;;21.68;100.00;101045.97;20986330;28;20124;-58
2023/09/11 22:53:12;;;;;;;10.95;9.75;;;;;;;21.66;100.00;101046.13;20986227;28;20040;-58
2023/09/11 23:03:14;;;;;;;12.30;9.70;;;;;;;21.64;100.00;101012.06;20985958;28;20067;-58
2023/09/11 23:13:15;;;;;;;11.13;9.75;;;;;;;21.63;100.00;100988.66;20968556;28;20049;-58
2023/09/11 23:23:17;;;;;;;10.73;9.68;;;;;;;21.62;100.00;100989.66;20966671;28;20051;-58
2023/09/11 23:33:19;;;;;;;9.68;8.75;;;;;;;21.59;100.00;101029.59;20984496;28;20124;-58
2023/09/11 23:43:30;;;;;;;10.85;9.75;;;;;;;21.59;100.00;101053.16;20984714;28;20385;-58
2023/09/11 23:53:32;;;;;;;9.70;8.70;;;;;;;21.57;100.00;101069.53;20993927;28;20139;-58
